< < Back
Terminal Aerodrome Forecast


Current Version              Previous Versions:   1  2  3  4  5  6  7  8  9  

Terminal Aerodrome Forecast

905
FTUS42 KMLB 312100 AAA
TAFMCO
TAF AMD
KMCO 312112Z 3121/0118 23005KT P6SM SCT050 SCT250
     FM312200 08010KT P6SM VCTS SCT050CB BKN250
     FM010100 15003KT P6SM FEW060 SCT090 BKN250
     FM011400 20004KT P6SM FEW020 SCT250=

Latest METAR

685
SAUS70 KWBC 312100 RRB
MTRMCO
METAR KMCO 312053Z 23005KT 10SM SCT050 BKN250 33/21 A2993 RMK AO2 SLP134
CB DSNT NE STNRY T03330211 56013


USA.gov is the U.S. government's official web portal to all federal, state and local government web resources and services.